Victor, Idaho
Current Conditions -  °F | °C
As of 3:56 PM on Wednesday 26 Nov 2014 (Local Time) from KDIJ Reporting Station
Scattered Clouds Scattered Clouds  
Wind Chill: 30°   Ceiling: Unl
Heat Index: 38°   Visibility: 10mi
Dew Point: 32°   Wind: 13mph
Humidity: 79%   Direction: 150°SSE
Pressure: 30.31"   Gusts: NA
Location:  43.6°N, 111.11°W
Report Text: KDIJ 262256Z AUTO 15011KT 10SM SCT075 03/00 A3031 RMK AO2 T00330000 SLP243
Loading
Personal Weather Stations






























Interactive Weather Map New forecast layout! Learn more

10-Day Weather Forecast

Advertisements
Track Severe Weather on mobile